There are multiple Weather-warnings   Click here for more information


Meteo18 Weather Cam more information Meteo18 Weather Cam


warning for Thunderstorms more information blitzortung!


Rain radar more information rain snow radar


Visit our other weather sites:

Template documentation
and downloads

And another site



Weather Underground History page Text

Daily Summary for April 9, 2017 Units:  English    Metric   Both
« Previous Day
Next Day »
Daily Weekly Monthly Yearly Custom
  High: Low: Average:
Temperature: 76.6 °F 46.6 °F 62.1 °F
Dew Point: 54.9 °F 42.3 °F 47.5 °F
Humidity: 90 % 30 % 62 %
Wind Speed: 8 mph 0 mph 1.4 mph
Wind Gust: 8 mph - -
Wind:- - SSW
Pressure: 30.2 in 30.2 in -
Precipitation: 0 in    
Historical Graphs
 
 
Tabular Data for April 9, 2017
Time Temperature Dew Point Pressure Wind Wind Speed Wind Gust Humidity Rainfall Rate (Hourly)
00:02 55.9 °F 47.1 °F 30.2 in Calm   2 mph 72 % 0 in
00:12 54.7 °F 46.6 °F 30.2 in WNW 2 mph 2 mph 74 % 0 in
00:17 54.9 °F 47.1 °F 30.2 in WNW 1 mph 3 mph 75 % 0 in
00:22 55.6 °F 47.1 °F 30.2 in NW 1 mph 3 mph 73 % 0 in
00:27 55.9 °F 47.1 °F 30.2 in NW 1 mph 3 mph 72 % 0 in
00:32 55.8 °F 46.9 °F 30.2 in Calm   3 mph 72 % 0 in
00:37 55.8 °F 46.9 °F 30.2 in NW 1 mph 3 mph 72 % 0 in
00:42 55.4 °F 46.6 °F 30.2 in NW 2 mph 3 mph 72 % 0 in
00:47 55 °F 46.2 °F 30.2 in WNW 2 mph 3 mph 72 % 0 in
00:52 54 °F 46.2 °F 30.2 in WNW 2 mph 3 mph 75 % 0 in
00:57 54.1 °F 46.8 °F 30.2 in NW 2 mph 3 mph 76 % 0 in
01:02 54.9 °F 46.8 °F 30.2 in NW 1 mph 3 mph 74 % 0 in
01:07 54.7 °F 46.2 °F 30.2 in NW 1 mph 3 mph 73 % 0 in
01:12 54.9 °F 46.4 °F 30.2 in NNW 2 mph 3 mph 73 % 0 in
01:17 54.9 °F 46.4 °F 30.2 in North 1 mph 3 mph 73 % 0 in
01:22 54.9 °F 46.4 °F 30.2 in North 1 mph 3 mph 73 % 0 in
01:27 54.9 °F 46.4 °F 30.2 in North 3 mph 3 mph 73 % 0 in
01:32 54.9 °F 46.4 °F 30.2 in North 1 mph 3 mph 73 % 0 in
01:37 54.7 °F 46.6 °F 30.2 in North 2 mph 3 mph 74 % 0 in
01:42 54.5 °F 46.4 °F 30.2 in NW 1 mph 4 mph 74 % 0 in
01:47 54 °F 46.2 °F 30.2 in NW 2 mph 4 mph 75 % 0 in
01:52 54.1 °F 46.4 °F 30.2 in NNW 1 mph 3 mph 75 % 0 in
01:57 54.5 °F 46.8 °F 30.2 in NNW 1 mph 3 mph 75 % 0 in
02:02 54.5 °F 46.4 °F 30.2 in NNW 2 mph 3 mph 74 % 0 in
02:07 54.5 °F 46.8 °F 30.2 in NW 1 mph 3 mph 75 % 0 in
02:12 54.3 °F 46.6 °F 30.2 in Calm   3 mph 75 % 0 in
02:17 54.1 °F 46.4 °F 30.2 in NNW 2 mph 3 mph 75 % 0 in
02:22 54 °F 46.2 °F 30.2 in Calm   3 mph 75 % 0 in
02:27 53.8 °F 46.4 °F 30.2 in North 1 mph 3 mph 76 % 0 in
02:32 53.8 °F 46.4 °F 30.2 in North 1 mph 3 mph 76 % 0 in
02:37 53.4 °F 46 °F 30.2 in NNE 2 mph 3 mph 76 % 0 in
02:42 53.2 °F 46.2 °F 30.2 in Calm   3 mph 77 % 0 in
02:52 53.1 °F 46 °F 30.2 in WNW 2 mph 3 mph 77 % 0 in
02:57 53.1 °F 46.4 °F 30.2 in WNW 1 mph 2 mph 78 % 0 in
03:02 53.2 °F 46.2 °F 30.2 in Calm   2 mph 77 % 0 in
03:07 53.2 °F 46.2 °F 30.2 in NW 1 mph 2 mph 77 % 0 in
03:12 53.1 °F 46 °F 30.2 in Calm   2 mph 77 % 0 in
03:17 53.1 °F 46.4 °F 30.2 in Calm   1 mph 78 % 0 in
03:22 52.9 °F 46.2 °F 30.2 in NW 1 mph 2 mph 78 % 0 in
03:27 52.9 °F 46.2 °F 30.2 in NW 1 mph 2 mph 78 % 0 in
03:32 52.9 °F 46.2 °F 30.2 in NW 1 mph 2 mph 78 % 0 in
03:37 53.1 °F 46.4 °F 30.2 in NW 1 mph 2 mph 78 % 0 in
03:42 53.2 °F 46.2 °F 30.2 in NW 1 mph 2 mph 77 % 0 in
03:47 53.2 °F 46.2 °F 30.2 in Calm   2 mph 77 % 0 in
03:52 53.2 °F 46.2 °F 30.2 in Calm   2 mph 77 % 0 in
03:57 53.4 °F 46.4 °F 30.2 in North 1 mph 2 mph 77 % 0 in
04:02 53.4 °F 46.4 °F 30.2 in Calm   2 mph 77 % 0 in
04:07 53.2 °F 46.2 °F 30.2 in Calm   2 mph 77 % 0 in
04:12 52.9 °F 45.9 °F 30.2 in Calm   1 mph 77 % 0 in
04:17 52.3 °F 45.7 °F 30.2 in Calm   1 mph 78 % 0 in
04:22 52 °F 45.7 °F 30.2 in Calm   1 mph 79 % 0 in
04:27 52 °F 46 °F 30.2 in Calm   1 mph 80 % 0 in
04:32 52 °F 46 °F 30.2 in Calm   1 mph 80 % 0 in
04:37 51.4 °F 45.5 °F 30.2 in Calm     80 % 0 in
04:42 51.3 °F 45.7 °F 30.2 in Calm   1 mph 81 % 0 in
04:47 51.1 °F 45.5 °F 30.2 in Calm   1 mph 81 % 0 in
04:52 50.7 °F 45.1 °F 30.2 in Calm   1 mph 81 % 0 in
04:57 50.4 °F 45.1 °F 30.2 in Calm   1 mph 82 % 0 in
05:02 50 °F 45 °F 30.2 in NNW 1 mph 1 mph 83 % 0 in
05:12 50.2 °F 45 °F 30.2 in Calm   2 mph 82 % 0 in
05:17 49.6 °F 45 °F 30.2 in North 1 mph 2 mph 84 % 0 in
05:22 50.2 °F 45.5 °F 30.2 in NNW 1 mph 2 mph 84 % 0 in
05:27 50.5 °F 45.3 °F 30.2 in Calm   2 mph 82 % 0 in
05:32 50 °F 44.8 °F 30.2 in Calm   2 mph 82 % 0 in
05:37 49.5 °F 44.6 °F 30.2 in Calm   2 mph 83 % 0 in
05:42 49.1 °F 44.8 °F 30.2 in NNW 1 mph 1 mph 85 % 0 in
05:47 49.3 °F 45 °F 30.2 in Calm   1 mph 85 % 0 in
05:52 49.3 °F 45 °F 30.2 in Calm   1 mph 85 % 0 in
05:57 49.5 °F 44.8 °F 30.2 in Calm   1 mph 84 % 0 in
06:02 49.6 °F 45.3 °F 30.2 in North 1 mph 1 mph 85 % 0 in
06:07 49.6 °F 45 °F 30.2 in NNW 1 mph 2 mph 84 % 0 in
06:12 49.3 °F 44.6 °F 30.2 in NNW 1 mph 2 mph 84 % 0 in
06:17 49.5 °F 44.8 °F 30.2 in NNW 1 mph 2 mph 84 % 0 in
06:22 49.5 °F 44.8 °F 30.2 in NNW 1 mph 3 mph 84 % 0 in
06:32 49.1 °F 44.4 °F 30.2 in NNW 1 mph 3 mph 84 % 0 in
06:37 48.7 °F 44.1 °F 30.2 in North 2 mph 2 mph 84 % 0 in
06:42 48.9 °F 45 °F 30.2 in North 2 mph 2 mph 86 % 0 in
06:47 48.9 °F 44.6 °F 30.2 in North 1 mph 3 mph 85 % 0 in
06:52 48.7 °F 44.1 °F 30.2 in Calm   3 mph 84 % 0 in
06:57 47.7 °F 43 °F 30.2 in Calm   2 mph 84 % 0 in
07:02 46.6 °F 42.6 °F 30.2 in Calm   2 mph 86 % 0 in
07:12 47.1 °F 44.4 °F 30.2 in NNW 1 mph 1 mph 90 % 0 in
07:17 47.5 °F 44.4 °F 30.2 in Calm   1 mph 89 % 0 in
07:22 47.7 °F 44.2 °F 30.2 in NNW 1 mph 1 mph 88 % 0 in
07:27 47.5 °F 43.9 °F 30.2 in North 1 mph 1 mph 87 % 0 in
07:32 47.7 °F 44.1 °F 30.2 in NNW 1 mph 1 mph 87 % 0 in
07:37 47.8 °F 44.2 °F 30.2 in NNW 1 mph 2 mph 87 % 0 in
07:42 48.2 °F 44.6 °F 30.2 in North 1 mph 2 mph 87 % 0 in
07:47 48.6 °F 44.6 °F 30.2 in Calm   2 mph 86 % 0 in
07:52 48.6 °F 44.2 °F 30.2 in Calm   2 mph 85 % 0 in
07:57 48.6 °F 44.2 °F 30.2 in Calm   2 mph 85 % 0 in
08:02 48.4 °F 44.1 °F 30.2 in NW 1 mph 2 mph 85 % 0 in
08:07 48.4 °F 44.4 °F 30.2 in Calm   2 mph 86 % 0 in
08:12 48.7 °F 45 °F 30.2 in Calm   2 mph 87 % 0 in
08:17 49.3 °F 45.3 °F 30.2 in Calm   2 mph 86 % 0 in
08:22 49.6 °F 45.7 °F 30.2 in Calm   1 mph 86 % 0 in
08:32 51.3 °F 46.6 °F 30.2 in Calm   1 mph 84 % 0 in
08:37 52 °F 47.3 °F 30.2 in Calm   1 mph 84 % 0 in
08:42 52.5 °F 47.5 °F 30.2 in Calm   1 mph 83 % 0 in
08:47 53.6 °F 48.6 °F 30.2 in Calm   1 mph 83 % 0 in
08:52 54.3 °F 48.6 °F 30.2 in Calm   1 mph 81 % 0 in
08:57 55 °F 48.9 °F 30.2 in Calm     80 % 0 in
09:02 56.7 °F 50.2 °F 30.2 in Calm     79 % 0 in
09:07 58.5 °F 48.7 °F 30.2 in Calm     70 % 0 in
09:12 59.2 °F 47.5 °F 30.2 in Calm   1 mph 65 % 0 in
09:17 59 °F 48 °F 30.2 in Calm   1 mph 67 % 0 in
09:22 58.6 °F 47.7 °F 30.2 in SE 1 mph 4 mph 67 % 0 in
09:27 58.6 °F 47.7 °F 30.2 in South 2 mph 4 mph 67 % 0 in
09:32 58.6 °F 47.7 °F 30.2 in SE 3 mph 4 mph 67 % 0 in
09:37 58.6 °F 47.7 °F 30.2 in SE 2 mph 4 mph 67 % 0 in
09:42 58.3 °F 46.9 °F 30.2 in SSE 4 mph 5 mph 66 % 0 in
09:47 57.9 °F 46.9 °F 30.2 in ESE 3 mph 6 mph 67 % 0 in
09:52 58.1 °F 48 °F 30.2 in SE 2 mph 6 mph 69 % 0 in
09:57 58.3 °F 47.8 °F 30.2 in ENE 2 mph 6 mph 68 % 0 in
10:02 58.8 °F 48.7 °F 30.2 in East 2 mph 6 mph 69 % 0 in
10:07 59.2 °F 49.1 °F 30.2 in East 1 mph 5 mph 69 % 0 in
10:12 59.2 °F 49.1 °F 30.2 in East 1 mph 4 mph 69 % 0 in
10:17 59.4 °F 48.7 °F 30.2 in East 2 mph 4 mph 68 % 0 in
10:22 59.2 °F 49.5 °F 30.2 in Calm   4 mph 70 % 0 in
10:32 59.4 °F 48.7 °F 30.2 in Calm   5 mph 68 % 0 in
10:42 59.7 °F 48.7 °F 30.2 in SE 3 mph 5 mph 67 % 0 in
10:47 59.9 °F 48.9 °F 30.2 in SE 3 mph 4 mph 67 % 0 in
10:52 60.3 °F 49.3 °F 30.2 in SE 3 mph 4 mph 67 % 0 in
10:57 60.3 °F 50 °F 30.2 in SE 2 mph 4 mph 69 % 0 in
11:02 61 °F 50 °F 30.2 in Calm   5 mph 67 % 0 in
11:07 61.3 °F 49.8 °F 30.2 in SE 1 mph 5 mph 66 % 0 in
11:12 62.1 °F 50.9 °F 30.2 in Calm   4 mph 67 % 0 in
11:17 63 °F 51.4 °F 30.2 in SE 1 mph 3 mph 66 % 0 in
11:22 62.8 °F 50.4 °F 30.2 in Calm   5 mph 64 % 0 in
11:27 63.1 °F 51.3 °F 30.2 in SE 3 mph 5 mph 65 % 0 in
11:32 63.1 °F 51.3 °F 30.2 in SSW 2 mph 5 mph 65 % 0 in
11:37 64 °F 51.6 °F 30.2 in ESE 1 mph 4 mph 64 % 0 in
11:42 64.4 °F 51.1 °F 30.2 in SE 2 mph 4 mph 62 % 0 in
11:47 64.6 °F 51.6 °F 30.2 in Calm   6 mph 63 % 0 in
11:52 64.9 °F 51.6 °F 30.2 in SSE 1 mph 6 mph 62 % 0 in
11:57 65.5 °F 52.2 °F 30.2 in East 2 mph 6 mph 62 % 0 in
12:02 65.3 °F 52 °F 30.2 in Calm   4 mph 62 % 0 in
12:07 65.7 °F 53.2 °F 30.2 in East 1 mph 4 mph 64 % 0 in
12:12 65.5 °F 52.5 °F 30.2 in East 3 mph 5 mph 63 % 0 in
12:17 65.8 °F 52.5 °F 30.2 in ENE 1 mph 5 mph 62 % 0 in
12:22 66.4 °F 53.4 °F 30.2 in ENE 2 mph 5 mph 63 % 0 in
12:27 66.6 °F 52.2 °F 30.2 in Calm   4 mph 60 % 0 in
12:32 67.5 °F 53.1 °F 30.2 in SSE 1 mph 4 mph 60 % 0 in
12:37 67.8 °F 52 °F 30.2 in Calm   4 mph 57 % 0 in
12:47 68.2 °F 52.3 °F 30.2 in ESE 4 mph 5 mph 57 % 0 in
12:52 68.4 °F 53.4 °F 30.2 in Calm   5 mph 59 % 0 in
12:57 68.5 °F 52.7 °F 30.2 in ESE 2 mph 5 mph 57 % 0 in
13:02 68.9 °F 53.6 °F 30.2 in SSE 2 mph 5 mph 58 % 0 in
13:07 69.1 °F 54.1 °F 30.2 in ESE 3 mph 4 mph 59 % 0 in
13:12 69.1 °F 53.2 °F 30.2 in ESE 3 mph 6 mph 57 % 0 in
13:17 69.4 °F 53.6 °F 30.2 in East 3 mph 6 mph 57 % 0 in
13:22 69.8 °F 54.3 °F 30.2 in SE 1 mph 6 mph 58 % 0 in
13:27 70.3 °F 54 °F 30.2 in SSW 3 mph 7 mph 56 % 0 in
13:32 70.7 °F 52.7 °F 30.2 in ESE 6 mph 7 mph 53 % 0 in
13:37 70.9 °F 54.9 °F 30.2 in East 1 mph 7 mph 57 % 0 in
13:42 71.1 °F 53.6 °F 30.2 in SE 3 mph 7 mph 54 % 0 in
13:47 70.5 °F 53.1 °F 30.2 in Calm   7 mph 54 % 0 in
13:52 71.2 °F 53.2 °F 30.2 in Calm   7 mph 53 % 0 in
13:57 71.1 °F 52.5 °F 30.2 in East 2 mph 7 mph 52 % 0 in
14:02 70.9 °F 52.3 °F 30.2 in Calm   5 mph 52 % 0 in
14:07 71.8 °F 53.8 °F 30.2 in Calm   5 mph 53 % 0 in
14:12 72 °F 52.3 °F 30.2 in East 2 mph 5 mph 50 % 0 in
14:17 72 °F 52.3 °F 30.2 in SE 1 mph 5 mph 50 % 0 in
14:22 72 °F 52.3 °F 30.2 in ENE 3 mph 5 mph 50 % 0 in
14:27 72.3 °F 54.1 °F 30.2 in Calm   4 mph 53 % 0 in
14:32 73.2 °F 52.3 °F 30.2 in WSW 4 mph 4 mph 48 % 0 in
14:37 73.2 °F 54 °F 30.2 in ESE 2 mph 6 mph 51 % 0 in
14:42 73 °F 51.1 °F 30.2 in ENE 2 mph 6 mph 46 % 0 in
14:47 73.6 °F 51.4 °F 30.2 in WSW 4 mph 6 mph 46 % 0 in
14:52 73.2 °F 50.5 °F 30.2 in SSW 2 mph 7 mph 45 % 0 in
14:57 72.9 °F 50.4 °F 30.2 in SSW 1 mph 8 mph 45 % 0 in
15:02 73.2 °F 50.5 °F 30.2 in SW 6 mph 8 mph 45 % 0 in
15:07 73.6 °F 50.4 °F 30.2 in SSW 6 mph 8 mph 44 % 0 in
15:12 73.4 °F 49.5 °F 30.2 in SE 3 mph 8 mph 43 % 0 in
15:17 73.6 °F 50.9 °F 30.2 in Calm   8 mph 45 % 0 in
15:22 73.6 °F 50.9 °F 30.2 in ESE 3 mph 8 mph 45 % 0 in
15:27 73.8 °F 52.3 °F 30.2 in ESE 1 mph 5 mph 47 % 0 in
15:32 73.9 °F 51.8 °F 30.2 in SSW 2 mph 6 mph 46 % 0 in
15:37 74.5 °F 51.8 °F 30.2 in ESE 3 mph 7 mph 45 % 0 in
15:42 73.9 °F 50.7 °F 30.2 in ESE 4 mph 7 mph 44 % 0 in
15:47 73.9 °F 49.5 °F 30.2 in South 6 mph 6 mph 42 % 0 in
15:52 73.9 °F 48.7 °F 30.2 in East 2 mph 7 mph 41 % 0 in
15:57 74.3 °F 49.6 °F 30.2 in SSW 2 mph 7 mph 42 % 0 in
16:02 75 °F 47.7 °F 30.2 in SW 8 mph 8 mph 38 % 0 in
16:07 74.7 °F 48 °F 30.2 in SSW 1 mph 8 mph 39 % 0 in
16:12 75.4 °F 49.5 °F 30.2 in West 2 mph 8 mph 40 % 0 in
16:17 76.1 °F 49.3 °F 30.2 in SW 2 mph 8 mph 39 % 0 in
16:22 75.4 °F 48 °F 30.2 in SW 1 mph 6 mph 38 % 0 in
16:27 75.6 °F 46 °F 30.2 in Calm   8 mph 35 % 0 in
16:32 75.7 °F 47.7 °F 30.2 in WSW 2 mph 8 mph 37 % 0 in
16:37 75.6 °F 48.2 °F 30.2 in Calm   5 mph 38 % 0 in
16:42 76.1 °F 48.6 °F 30.2 in Calm   5 mph 38 % 0 in
16:52 76.6 °F 47.7 °F 30.2 in WSW 3 mph 4 mph 36 % 0 in
16:57 76.3 °F 49.5 °F 30.2 in SSW 3 mph 5 mph 39 % 0 in
17:02 76.5 °F 49.6 °F 30.2 in SW 4 mph 7 mph 39 % 0 in
17:07 75.9 °F 48.6 °F 30.2 in SW 3 mph 7 mph 38 % 0 in
17:12 75.7 °F 49.1 °F 30.2 in SW 3 mph 8 mph 39 % 0 in
17:17 75.7 °F 49.1 °F 30.2 in SE 2 mph 8 mph 39 % 0 in
17:22 76.1 °F 48.6 °F 30.2 in SSW 1 mph 8 mph 38 % 0 in
17:27 75.9 °F 47.8 °F 30.2 in WSW 4 mph 8 mph 37 % 0 in
17:32 75.9 °F 48.6 °F 30.2 in SSW 5 mph 8 mph 38 % 0 in
17:37 75.9 °F 47.1 °F 30.2 in SW 3 mph 8 mph 36 % 0 in
17:42 75.9 °F 46.2 °F 30.2 in South 2 mph 7 mph 35 % 0 in
17:47 76.1 °F 47.1 °F 30.2 in SW 4 mph 8 mph 36 % 0 in
17:52 76.1 °F 45 °F 30.2 in SSW 6 mph 8 mph 33 % 0 in
17:57 76.1 °F 44.1 °F 30.2 in SSW 4 mph 8 mph 32 % 0 in
18:02 75.9 °F 44.8 °F 30.2 in SW 3 mph 7 mph 33 % 0 in
18:07 76.3 °F 45.1 °F 30.2 in SW 5 mph 8 mph 33 % 0 in
18:12 75.9 °F 45.5 °F 30.2 in South 2 mph 8 mph 34 % 0 in
18:17 76.5 °F 45.1 °F 30.2 in South 5 mph 7 mph 33 % 0 in
18:22 76.3 °F 44.2 °F 30.2 in SW 5 mph 7 mph 32 % 0 in
18:27 75.9 °F 42.3 °F 30.2 in SSW 4 mph 8 mph 30 % 0 in
18:32 75.9 °F 44.8 °F 30.2 in SSW 5 mph 8 mph 33 % 0 in
18:37 75.7 °F 43.7 °F 30.2 in SW 5 mph 7 mph 32 % 0 in
18:47 75.9 °F 45.5 °F 30.2 in South 5 mph 7 mph 34 % 0 in
18:52 75.7 °F 43.7 °F 30.2 in SSW 3 mph 7 mph 32 % 0 in
18:57 75.7 °F 44.6 °F 30.2 in SSW 4 mph 7 mph 33 % 0 in
19:02 75.6 °F 43.7 °F 30.2 in SW 5 mph 7 mph 32 % 0 in
19:07 75.6 °F 43.7 °F 30.2 in SSW 4 mph 7 mph 32 % 0 in
19:12 75.6 °F 42.8 °F 30.2 in SSW 3 mph 7 mph 31 % 0 in
19:17 75.6 °F 44.4 °F 30.2 in SW 4 mph 7 mph 33 % 0 in
19:22 75.2 °F 45 °F 30.2 in SSE 2 mph 7 mph 34 % 0 in
19:27 75.4 °F 45.1 °F 30.2 in SSW 3 mph 6 mph 34 % 0 in
19:32 75.2 °F 45.7 °F 30.2 in SW 5 mph 6 mph 35 % 0 in
19:37 74.8 °F 46 °F 30.2 in SSW 1 mph 5 mph 36 % 0 in
19:47 74.3 °F 45 °F 30.2 in SW 2 mph 5 mph 35 % 0 in
19:52 73.8 °F 44.4 °F 30.2 in SW 2 mph 4 mph 35 % 0 in
19:57 73.6 °F 45.7 °F 30.2 in SW 2 mph 4 mph 37 % 0 in
20:02 73.2 °F 46 °F 30.2 in SW 1 mph 3 mph 38 % 0 in
20:07 72.9 °F 46.4 °F 30.2 in Calm   3 mph 39 % 0 in
20:12 72.3 °F 46 °F 30.2 in Calm   2 mph 39 % 0 in
20:17 72 °F 45.7 °F 30.2 in Calm   2 mph 39 % 0 in
20:22 71.4 °F 46.6 °F 30.2 in Calm     41 % 0 in
20:27 70.5 °F 46.4 °F 30.2 in Calm     42 % 0 in
20:32 70 °F 45.9 °F 30.2 in Calm     42 % 0 in
20:37 69.1 °F 45 °F 30.2 in Calm     42 % 0 in
20:42 68.5 °F 44.6 °F 30.2 in Calm     42 % 0 in
20:47 68 °F 44.6 °F 30.2 in Calm     43 % 0 in
20:52 67.6 °F 45 °F 30.2 in Calm     44 % 0 in
20:57 67.3 °F 45.1 °F 30.2 in Calm     45 % 0 in
21:02 66.7 °F 44.8 °F 30.2 in Calm     45 % 0 in
21:12 65.5 °F 46.4 °F 30.2 in Calm     50 % 0 in
21:17 64.6 °F 45 °F 30.2 in Calm     49 % 0 in
21:22 65.1 °F 45 °F 30.2 in Calm     48 % 0 in
21:32 63.7 °F 45.7 °F 30.2 in Calm     52 % 0 in
21:37 63.5 °F 45 °F 30.2 in Calm     51 % 0 in
21:42 63.5 °F 46 °F 30.2 in Calm     53 % 0 in
21:47 64 °F 45.5 °F 30.2 in Calm     51 % 0 in
21:57 62.8 °F 44.4 °F 30.2 in Calm     51 % 0 in
22:02 61.9 °F 45.1 °F 30.2 in Calm     54 % 0 in
22:07 61.2 °F 45.9 °F 30.2 in Calm     57 % 0 in
22:12 60.6 °F 46.6 °F 30.2 in Calm     60 % 0 in
22:17 60.6 °F 46.6 °F 30.2 in Calm     60 % 0 in
22:22 60.4 °F 46.9 °F 30.2 in Calm     61 % 0 in
22:27 61 °F 46.9 °F 30.2 in Calm     60 % 0 in
22:32 60.6 °F 47.1 °F 30.2 in Calm     61 % 0 in
22:42 60.6 °F 47.5 °F 30.2 in Calm     62 % 0 in
22:52 60.8 °F 47.3 °F 30.2 in Calm     61 % 0 in
22:57 60.4 °F 47.3 °F 30.2 in Calm     62 % 0 in
23:02 59.7 °F 47.1 °F 30.2 in Calm     63 % 0 in
23:07 59.4 °F 47.7 °F 30.2 in Calm     65 % 0 in
23:12 59.7 °F 47.5 °F 30.2 in Calm     64 % 0 in
23:17 59.4 °F 46.8 °F 30.2 in Calm     63 % 0 in
23:22 59.2 °F 47.5 °F 30.2 in Calm     65 % 0 in
23:27 60.1 °F 47.5 °F 30.2 in Calm     63 % 0 in
23:32 60.1 °F 47.5 °F 30.2 in Calm     63 % 0 in
23:37 59.7 °F 47.1 °F 30.2 in Calm     63 % 0 in
23:42 59.2 °F 46.9 °F 30.2 in Calm     64 % 0 in
23:47 58.5 °F 46.8 °F 30.2 in Calm     65 % 0 in
23:52 57.9 °F 46.6 °F 30.2 in Calm     66 % 0 in
23:57 57.6 °F 46.8 °F 30.2 in Calm     67 % 0 in
Meteo18
Compliments of Weather Underground - 4 mb

Script developed by  Jim McMurry - jmcmurry@mwt.net Adapted for the template by  Wim van der Kuil - Leuven-Template.eu

You find our weather info also at:

European Weather Network

Weather Underground

Equipment we use:

Weather-station
Davis Vue

Weather-program
Meteohub

Weather-server
Raspberry PI 2 B+

Provider
1 and 1

Davis Vue

Meteohub

Raspberry PI 2 B+

1 and 1